createdAt,value
2022-11-29T00:04:29.106Z,23.30
2022-11-29T00:10:30.581Z,24.37
2022-11-29T00:16:32.235Z,23.00
2022-11-29T00:22:33.972Z,24.33
2022-11-29T00:28:36.184Z,27.23
2022-11-29T00:34:37.718Z,26.00
2022-11-29T00:40:39.242Z,26.97
2022-11-29T00:46:40.788Z,27.58
2022-11-29T00:52:42.308Z,24.58
2022-11-29T00:58:43.855Z,23.53
2022-11-29T01:04:45.503Z,22.80
2022-11-29T01:10:47.312Z,28.60
2022-11-29T01:16:48.954Z,24.50
2022-11-29T01:22:50.544Z,27.10
2022-11-29T01:28:53.102Z,25.77
2022-11-29T01:34:54.580Z,25.88
2022-11-29T01:40:57.451Z,23.53
2022-11-29T01:46:58.943Z,26.40
2022-11-29T01:53:00.565Z,26.40
2022-11-29T01:59:03.673Z,25.03
2022-11-29T02:05:05.399Z,24.42
2022-11-29T02:11:19.099Z,24.37
2022-11-29T02:17:39.729Z,26.60
2022-11-29T02:24:06.432Z,27.42
2022-11-29T02:30:19.742Z,23.33
2022-11-29T02:36:41.715Z,26.90
2022-11-29T02:42:56.986Z,24.40
2022-11-29T02:49:07.777Z,21.80
2022-11-29T02:55:13.115Z,26.77
2022-11-29T03:01:20.150Z,25.27
2022-11-29T03:07:25.685Z,23.08
2022-11-29T03:13:45.379Z,23.63
2022-11-29T03:20:09.934Z,27.00
2022-11-29T03:26:17.412Z,22.27
2022-11-29T03:32:34.099Z,22.30
2022-11-29T03:38:40.102Z,21.17
2022-11-29T03:44:48.898Z,23.77
2022-11-29T03:50:59.275Z,26.42
2022-11-29T03:57:01.027Z,23.45
2022-11-29T04:03:11.414Z,25.37
2022-11-29T04:09:28.205Z,22.95
2022-11-29T04:15:35.580Z,23.70
2022-11-29T04:21:49.403Z,26.75
2022-11-29T04:28:09.417Z,22.05
2022-11-29T04:34:29.495Z,21.77
2022-11-29T04:40:35.893Z,22.85
2022-11-29T04:46:45.482Z,24.27
2022-11-29T04:52:47.037Z,22.85
2022-11-29T04:59:04.485Z,23.55
2022-11-29T05:05:24.708Z,22.43
2022-11-29T05:11:32.508Z,23.63
2022-11-29T05:17:44.780Z,22.17
2022-11-29T05:24:01.499Z,23.98
2022-11-29T05:30:09.433Z,21.88
2022-11-29T05:36:34.339Z,22.70
2022-11-29T05:42:36.923Z,23.60
2022-11-29T05:48:57.113Z,24.17
2022-11-29T05:55:13.967Z,23.60
2022-11-29T06:01:47.747Z,22.65
2022-11-29T06:07:53.662Z,29.33
2022-11-29T06:14:06.618Z,24.65
2022-11-29T06:20:19.151Z,22.53
2022-11-29T06:26:37.573Z,22.02
2022-11-29T06:32:57.440Z,23.63
2022-11-29T06:38:59.271Z,24.03
2022-11-29T06:45:00.991Z,21.33
2022-11-29T06:51:05.763Z,26.33
2022-11-29T06:57:30.683Z,21.67
2022-11-29T07:03:41.498Z,22.05
2022-11-29T07:09:43.351Z,18.83
2022-11-29T07:16:06.038Z,20.48
2022-11-29T07:22:26.456Z,20.10
2022-11-29T07:28:33.708Z,22.17
2022-11-29T07:34:41.154Z,21.60
2022-11-29T07:40:50.864Z,21.10
2022-11-29T07:46:52.458Z,22.58
2022-11-29T07:52:54.490Z,18.17
2022-11-29T07:58:56.038Z,19.90
2022-11-29T08:04:57.569Z,19.83
2022-11-29T08:10:59.244Z,20.40
2022-11-29T08:17:00.731Z,19.48
2022-11-29T08:23:03.452Z,22.17
2022-11-29T08:29:04.979Z,21.45
2022-11-29T08:35:06.641Z,18.55
2022-11-29T08:41:09.398Z,19.57
2022-11-29T08:47:29.374Z,21.70
2022-11-29T08:53:43.689Z,19.80
2022-11-29T08:59:45.188Z,20.15
2022-11-29T09:05:46.802Z,19.15
2022-11-29T09:11:49.676Z,19.47
2022-11-29T09:17:51.550Z,19.33
2022-11-29T09:23:59.445Z,18.77
2022-11-29T09:30:00.952Z,20.65
2022-11-29T09:36:03.092Z,17.08
2022-11-29T09:42:09.668Z,20.03
2022-11-29T09:48:26.557Z,21.00
2022-11-29T09:54:30.977Z,17.40
2022-11-29T10:00:35.331Z,16.08
2022-11-29T10:06:40.191Z,19.80
2022-11-29T10:12:48.372Z,17.17
2022-11-29T10:18:52.138Z,18.08
2022-11-29T10:24:57.372Z,17.93
2022-11-29T10:31:02.068Z,16.92
2022-11-29T10:37:03.878Z,18.48
2022-11-29T10:43:05.611Z,19.70
2022-11-29T10:49:11.927Z,16.90
2022-11-29T10:55:14.667Z,17.33
2022-11-29T11:01:16.575Z,19.20
2022-11-29T11:07:30.002Z,17.58
2022-11-29T11:13:32.271Z,17.27
2022-11-29T11:19:34.350Z,17.23
2022-11-29T11:25:39.524Z,18.47
2022-11-29T11:31:41.085Z,15.75
2022-11-29T11:37:53.439Z,15.98
2022-11-29T11:43:57.101Z,16.63
2022-11-29T11:50:04.435Z,16.17
2022-11-29T11:56:08.196Z,15.67
2022-11-29T12:02:35.454Z,16.45
2022-11-29T12:08:38.131Z,16.27
2022-11-29T12:14:46.500Z,17.33
2022-11-29T12:21:00.264Z,15.90
2022-11-29T12:27:04.016Z,16.60
2022-11-29T12:33:20.898Z,15.00
2022-11-29T12:39:30.001Z,15.93
2022-11-29T12:45:45.268Z,16.33
2022-11-29T12:51:53.689Z,18.23
2022-11-29T12:58:04.873Z,16.10
2022-11-29T13:04:14.773Z,15.77
2022-11-29T13:10:31.727Z,16.30
2022-11-29T13:16:39.254Z,13.83
2022-11-29T13:22:52.971Z,14.73
2022-11-29T13:28:54.487Z,16.33
2022-11-29T13:34:58.830Z,16.83
2022-11-29T13:41:20.159Z,18.13
2022-11-29T13:47:21.880Z,15.17
2022-11-29T13:53:25.093Z,17.42
2022-11-29T13:59:30.478Z,16.63
2022-11-29T14:05:37.170Z,16.67
2022-11-29T14:11:48.783Z,15.20
2022-11-29T14:17:55.664Z,15.43
2022-11-29T14:24:17.114Z,17.17
2022-11-29T14:30:37.258Z,15.10
2022-11-29T14:36:41.600Z,13.80
2022-11-29T14:42:48.128Z,14.68
2022-11-29T14:48:55.642Z,16.97
2022-11-29T14:55:02.963Z,18.05
2022-11-29T15:01:10.777Z,16.90
2022-11-29T15:07:16.807Z,14.18
2022-11-29T15:13:38.599Z,15.95
2022-11-29T15:19:49.130Z,16.27
2022-11-29T15:25:51.868Z,16.20
2022-11-29T15:31:54.585Z,15.97
2022-11-29T15:37:56.452Z,16.27
2022-11-29T15:44:02.109Z,18.30
2022-11-29T15:50:24.774Z,17.80
2022-11-29T15:56:35.735Z,17.75
2022-11-29T16:02:40.525Z,19.00
2022-11-29T16:08:43.401Z,18.20
2022-11-29T16:14:48.977Z,17.10
2022-11-29T16:21:00.263Z,20.30
2022-11-29T16:27:01.928Z,20.30
2022-11-29T16:33:03.645Z,18.93
2022-11-29T16:39:06.868Z,18.65
2022-11-29T16:45:27.287Z,17.00
2022-11-29T16:51:38.633Z,17.57
2022-11-29T16:57:40.281Z,18.08
2022-11-29T17:03:41.762Z,16.87
2022-11-29T17:09:43.263Z,15.77
2022-11-29T17:15:44.738Z,18.02
2022-11-29T17:21:46.330Z,16.20
2022-11-29T17:27:48.879Z,21.02
2022-11-29T17:33:51.198Z,16.60
2022-11-29T17:39:52.752Z,16.70
2022-11-29T17:45:54.323Z,17.52
2022-11-29T17:51:55.952Z,15.40
2022-11-29T17:57:57.461Z,16.77
2022-11-29T18:03:59.738Z,18.43
2022-11-29T18:10:01.249Z,16.35
2022-11-29T18:16:04.447Z,15.20
2022-11-29T18:22:05.914Z,15.67
2022-11-29T18:28:07.647Z,18.02
2022-11-29T18:34:10.160Z,17.27
2022-11-29T18:40:12.099Z,16.85
2022-11-29T18:46:17.547Z,19.58
2022-11-29T18:52:19.823Z,16.70
2022-11-29T18:58:21.341Z,18.92
2022-11-29T19:04:22.851Z,13.73
2022-11-29T19:10:24.455Z,14.95
2022-11-29T19:16:27.079Z,14.73
2022-11-29T19:22:29.949Z,17.43
2022-11-29T19:28:31.496Z,21.10
2022-11-29T19:34:33.049Z,19.03
2022-11-29T19:40:34.535Z,18.80
2022-11-29T19:46:37.662Z,18.98
2022-11-29T19:52:39.304Z,13.77
2022-11-29T19:58:41.179Z,16.55
2022-11-29T20:04:43.410Z,14.53
2022-11-29T20:10:45.313Z,16.92
2022-11-29T20:16:46.876Z,15.02
2022-11-29T20:22:48.456Z,14.07
2022-11-29T20:28:50.226Z,15.38
2022-11-29T20:34:51.915Z,14.97
2022-11-29T20:41:03.088Z,15.57
2022-11-29T20:47:16.200Z,17.75
2022-11-29T20:53:27.643Z,16.40
2022-11-29T20:59:29.232Z,15.95
2022-11-29T21:05:30.773Z,17.40
2022-11-29T21:11:32.446Z,17.50
2022-11-29T21:17:34.235Z,16.83
2022-11-29T21:23:46.429Z,16.67
2022-11-29T21:29:48.071Z,16.60
2022-11-29T21:35:53.027Z,20.47
2022-11-29T21:41:54.610Z,17.23
2022-11-29T21:47:59.179Z,17.67
2022-11-29T21:54:01.022Z,18.33
2022-11-29T22:00:03.435Z,16.75
2022-11-29T22:06:07.202Z,17.30
2022-11-29T22:12:32.027Z,16.65
2022-11-29T22:18:30.232Z,15.07
2022-11-29T22:24:33.115Z,16.27
2022-11-29T22:30:35.793Z,16.65
2022-11-29T22:36:38.323Z,17.53
2022-11-29T22:42:41.308Z,16.52
2022-11-29T22:48:43.958Z,15.80
2022-11-29T22:54:45.833Z,16.27
2022-11-29T23:00:47.628Z,16.98
2022-11-29T23:06:49.179Z,15.57
2022-11-29T23:12:50.711Z,17.38
2022-11-29T23:18:52.548Z,18.88
2022-11-29T23:24:54.066Z,20.20
2022-11-29T23:30:55.598Z,15.93
2022-11-29T23:36:57.082Z,17.73
2022-11-29T23:42:58.584Z,16.13
2022-11-29T23:49:00.076Z,18.02
2022-11-29T23:55:01.572Z,16.93
